createdAt,value
2023-04-16T00:03:41.992Z,3.80
2023-04-16T00:08:44.889Z,4.40
2023-04-16T00:13:47.598Z,4.40
2023-04-16T00:18:50.594Z,4.00
2023-04-16T00:23:53.633Z,5.00
2023-04-16T00:28:56.307Z,4.50
2023-04-16T00:33:59.664Z,4.90
2023-04-16T00:39:02.423Z,4.10
2023-04-16T00:44:05.334Z,5.00
2023-04-16T00:49:08.443Z,5.40
2023-04-16T00:54:11.730Z,4.70
2023-04-16T00:59:14.937Z,3.80
2023-04-16T01:09:20.386Z,4.70
2023-04-16T01:14:23.126Z,4.50
2023-04-16T01:19:26.182Z,4.00
2023-04-16T01:24:28.950Z,4.60
2023-04-16T01:29:31.660Z,4.60
2023-04-16T01:34:34.375Z,4.80
2023-04-16T01:39:37.066Z,3.80
2023-04-16T01:44:40.391Z,4.10
2023-04-16T01:49:45.769Z,5.10
2023-04-16T01:54:48.528Z,4.80
2023-04-16T01:59:51.318Z,4.00
2023-04-16T02:04:54.001Z,4.60
2023-04-16T02:09:58.027Z,5.10
2023-04-16T02:15:00.750Z,3.90
2023-04-16T02:20:05.807Z,4.30
2023-04-16T02:25:08.613Z,5.00
2023-04-16T02:30:12.347Z,4.90
2023-04-16T02:35:15.123Z,4.60
2023-04-16T02:40:17.925Z,4.30
2023-04-16T02:45:21.287Z,4.00
2023-04-16T02:50:24.044Z,4.50
2023-04-16T02:55:26.901Z,4.60
2023-04-16T03:00:29.862Z,4.10
2023-04-16T03:05:32.581Z,4.40
2023-04-16T03:10:36.379Z,4.00
2023-04-16T03:15:39.141Z,3.50
2023-04-16T03:20:41.944Z,3.30
2023-04-16T03:25:48.130Z,3.40
2023-04-16T03:30:52.975Z,3.80
2023-04-16T03:35:57.323Z,3.10
2023-04-16T03:41:00.196Z,3.20
2023-04-16T03:46:02.962Z,4.30
2023-04-16T03:51:05.950Z,4.20
2023-04-16T03:56:08.667Z,4.60
2023-04-16T04:01:11.435Z,3.70
2023-04-16T04:06:14.180Z,5.60
2023-04-16T04:11:16.907Z,4.30
2023-04-16T04:16:19.701Z,3.80
2023-04-16T04:21:22.535Z,4.60
2023-04-16T04:26:25.563Z,3.20
2023-04-16T04:31:28.558Z,3.70
2023-04-16T04:36:31.289Z,3.90
2023-04-16T04:41:33.981Z,3.60
2023-04-16T04:46:36.758Z,4.10
2023-04-16T04:51:39.474Z,3.20
2023-04-16T04:56:42.236Z,3.60
2023-04-16T05:01:44.933Z,3.70
2023-04-16T05:06:47.754Z,3.10
2023-04-16T05:11:50.439Z,3.60
2023-04-16T05:16:54.228Z,3.90
2023-04-16T05:21:57.085Z,4.80
2023-04-16T05:26:59.988Z,3.60
2023-04-16T05:32:02.995Z,4.30
2023-04-16T05:37:05.908Z,3.00
2023-04-16T05:42:09.117Z,3.40
2023-04-16T05:47:12.095Z,4.80
2023-04-16T05:52:15.521Z,3.80
2023-04-16T05:57:18.258Z,3.30
2023-04-16T06:02:21.231Z,4.40
2023-04-16T06:12:27.242Z,5.90
2023-04-16T06:17:29.969Z,4.60
2023-04-16T06:22:32.845Z,5.30
2023-04-16T06:27:35.854Z,5.50
2023-04-16T06:32:38.777Z,4.00
2023-04-16T06:37:41.766Z,4.70
2023-04-16T06:42:45.625Z,4.60
2023-04-16T06:47:48.703Z,5.50
2023-04-16T06:52:51.492Z,5.00
2023-04-16T06:57:54.192Z,3.90
2023-04-16T07:02:58.656Z,5.10
2023-04-16T07:08:01.739Z,3.90
2023-04-16T07:13:04.541Z,4.50
2023-04-16T07:18:07.318Z,5.40
2023-04-16T07:23:10.124Z,5.50
2023-04-16T07:28:13.263Z,4.40
2023-04-16T07:38:18.599Z,3.70
2023-04-16T07:43:25.453Z,3.10
2023-04-16T07:48:28.181Z,2.90
2023-04-16T07:53:31.455Z,3.90
2023-04-16T07:58:34.107Z,3.90
2023-04-16T08:03:37.073Z,2.50
2023-04-16T08:08:40.019Z,2.10
2023-04-16T08:13:42.838Z,2.30
2023-04-16T08:18:45.672Z,3.30
2023-04-16T08:23:48.574Z,3.30
2023-04-16T08:28:51.266Z,4.20
2023-04-16T08:33:54.157Z,3.60
2023-04-16T08:44:03.477Z,4.40
2023-04-16T08:49:08.074Z,5.80
2023-04-16T08:54:15.395Z,4.70
2023-04-16T08:59:19.108Z,5.40
2023-04-16T09:04:23.621Z,5.30
2023-04-16T09:09:27.028Z,4.70
2023-04-16T09:14:29.850Z,5.00
2023-04-16T09:19:32.592Z,6.90
2023-04-16T09:24:35.700Z,6.00
2023-04-16T09:34:55.747Z,4.40
2023-04-16T09:40:06.670Z,4.40
2023-04-16T09:45:10.015Z,5.20
2023-04-16T09:50:18.587Z,5.30
2023-04-16T09:55:27.699Z,4.30
2023-04-16T10:00:31.706Z,4.70
2023-04-16T10:05:34.675Z,7.80
2023-04-16T10:10:38.173Z,4.00
2023-04-16T10:15:40.987Z,4.40
2023-04-16T10:20:44.493Z,11.60
2023-04-16T10:25:49.358Z,6.10
2023-04-16T10:30:53.098Z,4.30
2023-04-16T10:36:13.676Z,6.90
2023-04-16T10:41:16.789Z,5.20
2023-04-16T10:51:32.768Z,7.30
2023-04-16T10:56:36.830Z,7.60
2023-04-16T11:01:44.419Z,5.60
2023-04-16T11:07:13.888Z,4.60
2023-04-16T11:12:23.430Z,7.20
2023-04-16T11:17:31.015Z,8.80
2023-04-16T11:22:39.293Z,8.30
2023-04-16T11:27:41.979Z,5.90
2023-04-16T11:32:45.416Z,7.40
2023-04-16T11:37:51.201Z,6.60
2023-04-16T11:42:53.865Z,8.30
2023-04-16T11:47:58.040Z,6.60
2023-04-16T11:53:05.906Z,5.40
2023-04-16T11:58:13.081Z,7.50
2023-04-16T12:03:16.576Z,6.40
2023-04-16T12:08:32.987Z,6.50
2023-04-16T12:13:40.058Z,8.70
2023-04-16T12:19:01.296Z,6.90
2023-04-16T12:24:04.839Z,7.90
2023-04-16T12:29:27.979Z,6.30
2023-04-16T12:34:48.376Z,7.90
2023-04-16T12:39:52.060Z,8.90
2023-04-16T12:44:54.750Z,9.00
2023-04-16T12:49:58.048Z,8.50
2023-04-16T12:55:02.774Z,7.30
2023-04-16T13:00:06.826Z,9.00
2023-04-16T13:05:10.274Z,7.00
2023-04-16T13:10:13.802Z,6.60
2023-04-16T13:15:16.794Z,7.00
2023-04-16T13:20:19.509Z,6.90
2023-04-16T13:25:22.815Z,7.20
2023-04-16T13:30:26.154Z,9.00
2023-04-16T13:35:29.397Z,7.40
2023-04-16T13:40:32.103Z,7.80
2023-04-16T13:45:34.993Z,7.60
2023-04-16T13:50:37.725Z,8.10
2023-04-16T13:55:40.454Z,7.90
2023-04-16T14:00:43.888Z,5.80
2023-04-16T14:05:46.752Z,5.60
2023-04-16T14:10:49.499Z,4.90
2023-04-16T14:15:55.864Z,4.40
2023-04-16T14:20:58.956Z,6.30
2023-04-16T14:31:04.690Z,7.90
2023-04-16T14:36:07.759Z,11.40
2023-04-16T14:46:17.742Z,8.80
2023-04-16T14:51:20.720Z,8.70
2023-04-16T14:56:23.410Z,8.00
2023-04-16T15:01:28.517Z,8.80
2023-04-16T15:06:36.726Z,7.30
2023-04-16T15:11:39.769Z,7.40
2023-04-16T15:16:42.695Z,6.90
2023-04-16T15:21:47.586Z,9.30
2023-04-16T15:26:51.585Z,10.70
2023-04-16T15:31:54.289Z,11.30
2023-04-16T15:36:57.063Z,9.10
2023-04-16T15:42:01.117Z,9.10
2023-04-16T15:47:06.524Z,10.80
2023-04-16T15:52:09.532Z,22.10
2023-04-16T16:02:15.705Z,9.40
2023-04-16T16:07:20.096Z,6.70
2023-04-16T16:12:23.214Z,9.50
2023-04-16T16:22:29.882Z,12.20
2023-04-16T16:27:32.600Z,12.40
2023-04-16T16:32:35.377Z,14.00
2023-04-16T16:37:38.495Z,10.40
2023-04-16T16:47:43.994Z,11.80
2023-04-16T16:52:46.718Z,11.30
2023-04-16T16:57:49.663Z,11.20
2023-04-16T17:02:52.808Z,10.90
2023-04-16T17:12:58.366Z,28.50
2023-04-16T17:18:01.177Z,18.40
2023-04-16T17:23:03.965Z,15.80
2023-04-16T17:28:06.763Z,12.90
2023-04-16T17:33:09.574Z,13.50
2023-04-16T17:38:12.283Z,13.50
2023-04-16T17:43:15.020Z,17.10
2023-04-16T17:48:17.780Z,14.90
2023-04-16T17:53:23.314Z,13.20
2023-04-16T17:58:26.713Z,12.50
2023-04-16T18:03:29.949Z,13.60
2023-04-16T18:08:33.822Z,12.10
2023-04-16T18:13:36.774Z,13.70
2023-04-16T18:18:39.540Z,17.00
2023-04-16T18:23:42.316Z,14.30
2023-04-16T18:28:45.452Z,24.80
2023-04-16T18:39:02.461Z,14.70
2023-04-16T18:44:05.593Z,12.20
2023-04-16T18:49:08.384Z,11.70
2023-04-16T18:54:11.464Z,11.70
2023-04-16T18:59:14.260Z,10.70
2023-04-16T19:04:17.066Z,10.60
2023-04-16T19:09:20.374Z,12.00
2023-04-16T19:14:23.130Z,12.60
2023-04-16T19:19:25.808Z,10.90
2023-04-16T19:24:28.475Z,11.60
2023-04-16T19:29:34.543Z,9.20
2023-04-16T19:34:37.237Z,11.50
2023-04-16T19:39:40.357Z,15.10
2023-04-16T19:44:43.053Z,13.70
2023-04-16T19:49:46.208Z,12.80
2023-04-16T19:59:52.485Z,12.70
2023-04-16T20:04:56.621Z,12.20
2023-04-16T20:15:02.118Z,9.70
2023-04-16T20:20:10.297Z,11.00
2023-04-16T20:25:14.478Z,12.50
2023-04-16T20:30:17.319Z,12.00
2023-04-16T20:35:20.040Z,10.70
2023-04-16T20:40:24.139Z,12.00
2023-04-16T20:45:32.174Z,15.00
2023-04-16T20:50:35.044Z,13.90
2023-04-16T20:55:37.837Z,10.90
2023-04-16T21:00:40.829Z,12.70
2023-04-16T21:05:50.002Z,15.50
2023-04-16T21:10:52.856Z,14.30
2023-04-16T21:15:55.830Z,14.90
2023-04-16T21:20:59.228Z,16.30
2023-04-16T21:26:01.959Z,20.90
2023-04-16T21:31:04.698Z,29.70
2023-04-16T21:36:07.846Z,16.20
2023-04-16T21:41:10.822Z,17.30
2023-04-16T21:46:13.600Z,20.80
2023-04-16T21:51:16.785Z,16.50
2023-04-16T22:01:22.265Z,15.50
2023-04-16T22:06:27.172Z,12.80
2023-04-16T22:11:29.929Z,12.70
2023-04-16T22:16:33.554Z,15.40
2023-04-16T22:21:36.416Z,15.40
2023-04-16T22:26:39.105Z,13.80
2023-04-16T22:31:41.959Z,11.80
2023-04-16T22:36:44.745Z,12.00
2023-04-16T22:41:47.715Z,14.60
2023-04-16T22:46:50.632Z,15.00
2023-04-16T22:51:53.430Z,12.80
2023-04-16T22:56:56.919Z,11.30
2023-04-16T23:01:59.683Z,11.20
2023-04-16T23:07:02.546Z,11.90
2023-04-16T23:12:05.851Z,13.40
2023-04-16T23:17:08.665Z,11.10
2023-04-16T23:22:11.574Z,11.70
2023-04-16T23:27:14.249Z,11.70
2023-04-16T23:32:16.945Z,10.80
2023-04-16T23:37:19.660Z,11.10
2023-04-16T23:42:22.363Z,10.90
2023-04-16T23:47:25.201Z,11.60
2023-04-16T23:52:28.068Z,9.70
2023-04-16T23:57:31.168Z,9.00
